PASN/SNP METAR and TAF weather

Enter ICAO airport designator
Station Type Date Time Source
PASN METAR 2020/07/14 05:53 UTC NOAA

PASN 140553Z AUTO 21003KT 6SM HZ OVC006 10/06 A2992 RMK SLP131 T01000061 10111 20100 53004 TSNO $ VIA AUTODIAL


Station Type Date Time Source
PASN Decoded METAR 2020/07/14 05:53 UTC NOAA

ST PAUL ISLAND AIRPORT, AK, United States (PASN) 57-10N 170-13W 9M
Jul 14, 2020 - 01:53 AM EDT / 2020.07.14 0553 UTC
Wind: from the SSW (210 degrees) at 3 MPH (3 KT):0
Visibility: 6 mile(s):0
Sky conditions: overcast
Weather: haze
Temperature: 50.0 F (10.0 C)
Dew Point: 43.0 F (6.1 C)
Relative Humidity: 76%
Pressure (altimeter): 29.92 in. Hg (1013 hPa)
Pressure tendency: 0.01 inches (0.4 hPa) higher than three hours ago
ob: PASN 140553Z AUTO 21003KT 6SM HZ OVC006 10/06 A2992 RMK SLP131 T01000061 10111 20100 53004 TSNO VIA AUTODIAL
cycle: 6

Station Type Date Time Source
PASN TAF 2020/07/14 06:39 UTC NOAA

TAF PASN 140536Z 1406/1506 VRB06KT 6SM BR OVC008
TEMPO 1406/1408 1SM BR OVC003
FM140800 VRB06KT 1SM BR OVC003
FM142100 10010KT P6SM OVC006

Example: see airport list